sensor_id;sensor_type;location;lat;lon;timestamp;P1;durP1;ratioP1;P2;durP2;ratioP2
26080;SDS011;13991;51.174;4.438;2023-02-04T00:00:49;34.37;;;10.17;;
26080;SDS011;13991;51.174;4.438;2023-02-04T00:03:15;31.50;;;10.77;;
26080;SDS011;13991;51.174;4.438;2023-02-04T00:05:40;25.57;;;9.77;;
26080;SDS011;13991;51.174;4.438;2023-02-04T00:08:07;38.13;;;11.07;;
26080;SDS011;13991;51.174;4.438;2023-02-04T00:10:32;27.93;;;10.57;;
26080;SDS011;13991;51.174;4.438;2023-02-04T00:12:58;29.93;;;10.20;;
26080;SDS011;13991;51.174;4.438;2023-02-04T00:15:24;20.57;;;8.63;;
26080;SDS011;13991;51.174;4.438;2023-02-04T00:17:50;33.23;;;9.17;;
26080;SDS011;13991;51.174;4.438;2023-02-04T00:20:16;32.27;;;9.90;;
26080;SDS011;13991;51.174;4.438;2023-02-04T00:22:43;32.17;;;11.17;;
26080;SDS011;13991;51.174;4.438;2023-02-04T00:25:09;30.60;;;13.07;;
26080;SDS011;13991;51.174;4.438;2023-02-04T00:27:35;36.63;;;11.93;;
26080;SDS011;13991;51.174;4.438;2023-02-04T00:30:02;41.60;;;13.23;;
26080;SDS011;13991;51.174;4.438;2023-02-04T00:32:30;43.70;;;17.30;;
26080;SDS011;13991;51.174;4.438;2023-02-04T00:34:56;53.13;;;21.07;;
26080;SDS011;13991;51.174;4.438;2023-02-04T00:37:22;61.10;;;24.10;;
26080;SDS011;13991;51.174;4.438;2023-02-04T00:39:47;61.57;;;23.50;;
26080;SDS011;13991;51.174;4.438;2023-02-04T00:42:13;63.17;;;24.30;;
26080;SDS011;13991;51.174;4.438;2023-02-04T00:44:39;57.30;;;24.13;;
26080;SDS011;13991;51.174;4.438;2023-02-04T00:47:04;62.10;;;23.50;;
26080;SDS011;13991;51.174;4.438;2023-02-04T00:49:30;64.23;;;24.27;;
26080;SDS011;13991;51.174;4.438;2023-02-04T00:51:58;63.57;;;22.97;;
26080;SDS011;13991;51.174;4.438;2023-02-04T00:54:23;59.17;;;24.23;;
26080;SDS011;13991;51.174;4.438;2023-02-04T00:56:49;77.90;;;31.27;;
26080;SDS011;13991;51.174;4.438;2023-02-04T00:59:15;75.87;;;27.70;;
26080;SDS011;13991;51.174;4.438;2023-02-04T01:01:41;71.57;;;25.90;;
26080;SDS011;13991;51.174;4.438;2023-02-04T01:04:06;70.40;;;22.97;;
26080;SDS011;13991;51.174;4.438;2023-02-04T01:06:32;64.50;;;22.07;;
26080;SDS011;13991;51.174;4.438;2023-02-04T01:08:58;52.97;;;20.27;;
26080;SDS011;13991;51.174;4.438;2023-02-04T01:11:25;60.40;;;20.77;;
26080;SDS011;13991;51.174;4.438;2023-02-04T01:13:51;56.30;;;18.93;;
26080;SDS011;13991;51.174;4.438;2023-02-04T01:16:17;55.07;;;18.80;;
26080;SDS011;13991;51.174;4.438;2023-02-04T01:18:42;56.37;;;18.67;;
26080;SDS011;13991;51.174;4.438;2023-02-04T01:21:08;58.93;;;19.33;;
26080;SDS011;13991;51.174;4.438;2023-02-04T01:23:34;55.33;;;17.80;;
26080;SDS011;13991;51.174;4.438;2023-02-04T01:26:00;49.83;;;16.30;;
26080;SDS011;13991;51.174;4.438;2023-02-04T01:28:26;61.57;;;18.23;;
26080;SDS011;13991;51.174;4.438;2023-02-04T01:30:51;46.97;;;15.33;;
26080;SDS011;13991;51.174;4.438;2023-02-04T01:33:17;52.03;;;16.87;;
26080;SDS011;13991;51.174;4.438;2023-02-04T01:35:43;54.23;;;16.87;;
26080;SDS011;13991;51.174;4.438;2023-02-04T01:38:08;60.00;;;19.17;;
26080;SDS011;13991;51.174;4.438;2023-02-04T01:40:34;55.90;;;18.50;;
26080;SDS011;13991;51.174;4.438;2023-02-04T01:43:00;50.63;;;16.30;;
26080;SDS011;13991;51.174;4.438;2023-02-04T01:45:26;42.17;;;14.83;;
26080;SDS011;13991;51.174;4.438;2023-02-04T01:47:52;49.33;;;14.67;;
26080;SDS011;13991;51.174;4.438;2023-02-04T01:50:18;46.33;;;14.30;;
26080;SDS011;13991;51.174;4.438;2023-02-04T01:52:43;47.77;;;15.40;;
26080;SDS011;13991;51.174;4.438;2023-02-04T01:55:15;40.60;;;11.33;;
26080;SDS011;13991;51.174;4.438;2023-02-04T01:57:42;44.13;;;14.47;;
26080;SDS011;13991;51.174;4.438;2023-02-04T02:00:14;38.03;;;14.03;;
26080;SDS011;13991;51.174;4.438;2023-02-04T02:02:45;46.13;;;15.90;;
26080;SDS011;13991;51.174;4.438;2023-02-04T02:05:16;59.73;;;14.77;;
26080;SDS011;13991;51.174;4.438;2023-02-04T02:07:48;50.77;;;15.30;;
26080;SDS011;13991;51.174;4.438;2023-02-04T02:10:14;58.13;;;16.50;;
26080;SDS011;13991;51.174;4.438;2023-02-04T02:12:42;44.90;;;15.47;;
26080;SDS011;13991;51.174;4.438;2023-02-04T02:15:09;56.80;;;17.73;;
26080;SDS011;13991;51.174;4.438;2023-02-04T02:17:36;57.60;;;18.30;;
26080;SDS011;13991;51.174;4.438;2023-02-04T02:20:14;53.00;;;17.77;;
26080;SDS011;13991;51.174;4.438;2023-02-04T02:25:10;51.90;;;18.60;;
26080;SDS011;13991;51.174;4.438;2023-02-04T02:27:37;49.63;;;18.20;;
26080;SDS011;13991;51.174;4.438;2023-02-04T02:30:03;42.07;;;17.07;;
26080;SDS011;13991;51.174;4.438;2023-02-04T02:32:30;48.83;;;16.80;;
26080;SDS011;13991;51.174;4.438;2023-02-04T02:34:56;53.80;;;17.77;;
26080;SDS011;13991;51.174;4.438;2023-02-04T02:37:22;61.50;;;19.37;;
26080;SDS011;13991;51.174;4.438;2023-02-04T02:39:48;52.50;;;18.57;;
26080;SDS011;13991;51.174;4.438;2023-02-04T02:42:16;44.03;;;18.20;;
26080;SDS011;13991;51.174;4.438;2023-02-04T02:44:43;43.00;;;17.27;;
26080;SDS011;13991;51.174;4.438;2023-02-04T02:47:14;56.23;;;18.17;;
26080;SDS011;13991;51.174;4.438;2023-02-04T02:49:42;43.73;;;16.67;;
26080;SDS011;13991;51.174;4.438;2023-02-04T02:52:11;49.73;;;17.70;;
26080;SDS011;13991;51.174;4.438;2023-02-04T02:54:38;47.83;;;18.27;;
26080;SDS011;13991;51.174;4.438;2023-02-04T02:57:09;39.47;;;16.83;;
26080;SDS011;13991;51.174;4.438;2023-02-04T02:59:46;41.53;;;16.70;;
26080;SDS011;13991;51.174;4.438;2023-02-04T03:02:13;47.60;;;17.90;;
26080;SDS011;13991;51.174;4.438;2023-02-04T03:04:43;51.83;;;17.90;;
26080;SDS011;13991;51.174;4.438;2023-02-04T03:07:13;48.17;;;17.13;;
26080;SDS011;13991;51.174;4.438;2023-02-04T03:09:39;56.07;;;18.57;;
26080;SDS011;13991;51.174;4.438;2023-02-04T03:12:05;52.80;;;18.43;;
26080;SDS011;13991;51.174;4.438;2023-02-04T03:14:31;60.33;;;18.67;;
26080;SDS011;13991;51.174;4.438;2023-02-04T03:16:57;60.23;;;19.67;;
26080;SDS011;13991;51.174;4.438;2023-02-04T03:19:25;47.33;;;18.23;;
26080;SDS011;13991;51.174;4.438;2023-02-04T03:21:52;43.13;;;16.93;;
26080;SDS011;13991;51.174;4.438;2023-02-04T03:24:19;39.67;;;16.27;;
26080;SDS011;13991;51.174;4.438;2023-02-04T03:26:45;39.63;;;16.17;;
26080;SDS011;13991;51.174;4.438;2023-02-04T03:29:11;54.07;;;17.23;;
26080;SDS011;13991;51.174;4.438;2023-02-04T03:31:37;47.80;;;17.80;;
26080;SDS011;13991;51.174;4.438;2023-02-04T03:34:03;52.03;;;19.30;;
26080;SDS011;13991;51.174;4.438;2023-02-04T03:36:29;54.73;;;19.43;;
26080;SDS011;13991;51.174;4.438;2023-02-04T03:38:55;51.23;;;19.80;;
26080;SDS011;13991;51.174;4.438;2023-02-04T03:41:21;47.67;;;19.47;;
26080;SDS011;13991;51.174;4.438;2023-02-04T03:43:46;54.50;;;20.00;;
26080;SDS011;13991;51.174;4.438;2023-02-04T03:46:12;57.03;;;20.97;;
26080;SDS011;13991;51.174;4.438;2023-02-04T03:48:38;57.07;;;20.33;;
26080;SDS011;13991;51.174;4.438;2023-02-04T03:51:03;52.60;;;21.10;;
26080;SDS011;13991;51.174;4.438;2023-02-04T03:53:29;58.67;;;21.70;;
26080;SDS011;13991;51.174;4.438;2023-02-04T03:55:55;56.33;;;22.23;;
26080;SDS011;13991;51.174;4.438;2023-02-04T03:58:21;59.33;;;22.40;;
26080;SDS011;13991;51.174;4.438;2023-02-04T04:00:46;58.43;;;22.03;;
26080;SDS011;13991;51.174;4.438;2023-02-04T04:03:12;58.20;;;22.43;;
26080;SDS011;13991;51.174;4.438;2023-02-04T04:05:38;56.33;;;21.40;;
26080;SDS011;13991;51.174;4.438;2023-02-04T04:08:03;57.23;;;22.90;;
26080;SDS011;13991;51.174;4.438;2023-02-04T04:10:29;60.10;;;22.67;;
26080;SDS011;13991;51.174;4.438;2023-02-04T04:12:55;55.30;;;22.77;;
26080;SDS011;13991;51.174;4.438;2023-02-04T04:15:21;80.97;;;25.37;;
26080;SDS011;13991;51.174;4.438;2023-02-04T04:17:47;60.97;;;22.53;;
26080;SDS011;13991;51.174;4.438;2023-02-04T04:20:12;60.00;;;23.20;;
26080;SDS011;13991;51.174;4.438;2023-02-04T04:22:38;62.67;;;23.93;;
26080;SDS011;13991;51.174;4.438;2023-02-04T04:25:04;64.60;;;24.97;;
26080;SDS011;13991;51.174;4.438;2023-02-04T04:27:30;57.43;;;22.60;;
26080;SDS011;13991;51.174;4.438;2023-02-04T04:29:55;61.63;;;23.37;;
26080;SDS011;13991;51.174;4.438;2023-02-04T04:32:21;63.27;;;25.00;;
26080;SDS011;13991;51.174;4.438;2023-02-04T04:34:47;73.13;;;23.87;;
26080;SDS011;13991;51.174;4.438;2023-02-04T04:37:13;57.57;;;25.20;;
26080;SDS011;13991;51.174;4.438;2023-02-04T04:39:38;57.27;;;24.30;;
26080;SDS011;13991;51.174;4.438;2023-02-04T04:42:04;66.30;;;24.73;;
26080;SDS011;13991;51.174;4.438;2023-02-04T04:44:30;76.33;;;25.30;;
26080;SDS011;13991;51.174;4.438;2023-02-04T04:46:55;69.23;;;25.83;;
26080;SDS011;13991;51.174;4.438;2023-02-04T04:49:22;62.50;;;24.17;;
26080;SDS011;13991;51.174;4.438;2023-02-04T04:51:48;68.03;;;24.10;;
26080;SDS011;13991;51.174;4.438;2023-02-04T04:54:13;54.30;;;23.57;;
26080;SDS011;13991;51.174;4.438;2023-02-04T04:56:39;61.47;;;23.07;;
26080;SDS011;13991;51.174;4.438;2023-02-04T04:59:05;69.10;;;24.47;;
26080;SDS011;13991;51.174;4.438;2023-02-04T05:01:31;63.53;;;24.83;;
26080;SDS011;13991;51.174;4.438;2023-02-04T05:03:57;75.90;;;26.53;;
26080;SDS011;13991;51.174;4.438;2023-02-04T05:06:23;67.50;;;25.57;;
26080;SDS011;13991;51.174;4.438;2023-02-04T05:08:52;69.53;;;26.10;;
26080;SDS011;13991;51.174;4.438;2023-02-04T05:11:19;77.13;;;26.97;;
26080;SDS011;13991;51.174;4.438;2023-02-04T05:13:45;64.90;;;27.37;;
26080;SDS011;13991;51.174;4.438;2023-02-04T05:16:11;80.47;;;28.20;;
26080;SDS011;13991;51.174;4.438;2023-02-04T05:18:37;77.37;;;27.17;;
26080;SDS011;13991;51.174;4.438;2023-02-04T05:21:03;91.77;;;27.87;;
26080;SDS011;13991;51.174;4.438;2023-02-04T05:23:29;74.10;;;26.80;;
26080;SDS011;13991;51.174;4.438;2023-02-04T05:25:54;81.27;;;28.20;;
26080;SDS011;13991;51.174;4.438;2023-02-04T05:28:20;74.90;;;27.10;;
26080;SDS011;13991;51.174;4.438;2023-02-04T05:30:46;84.47;;;29.83;;
26080;SDS011;13991;51.174;4.438;2023-02-04T05:33:12;80.63;;;29.67;;
26080;SDS011;13991;51.174;4.438;2023-02-04T05:35:37;85.83;;;29.13;;
26080;SDS011;13991;51.174;4.438;2023-02-04T05:38:03;81.93;;;29.63;;
26080;SDS011;13991;51.174;4.438;2023-02-04T05:40:29;88.63;;;30.07;;
26080;SDS011;13991;51.174;4.438;2023-02-04T05:42:54;87.87;;;31.87;;
26080;SDS011;13991;51.174;4.438;2023-02-04T05:45:20;95.33;;;34.17;;
26080;SDS011;13991;51.174;4.438;2023-02-04T05:47:46;93.83;;;33.20;;
26080;SDS011;13991;51.174;4.438;2023-02-04T05:50:12;92.80;;;33.10;;
26080;SDS011;13991;51.174;4.438;2023-02-04T05:52:38;99.40;;;37.47;;
26080;SDS011;13991;51.174;4.438;2023-02-04T05:55:04;91.37;;;33.77;;
26080;SDS011;13991;51.174;4.438;2023-02-04T05:57:31;94.97;;;32.57;;
26080;SDS011;13991;51.174;4.438;2023-02-04T05:59:56;84.57;;;31.97;;
26080;SDS011;13991;51.174;4.438;2023-02-04T06:02:22;93.23;;;33.20;;
26080;SDS011;13991;51.174;4.438;2023-02-04T06:04:49;94.50;;;31.70;;
26080;SDS011;13991;51.174;4.438;2023-02-04T06:07:14;75.30;;;30.67;;
26080;SDS011;13991;51.174;4.438;2023-02-04T06:09:40;82.10;;;30.40;;
26080;SDS011;13991;51.174;4.438;2023-02-04T06:12:05;80.33;;;31.67;;
26080;SDS011;13991;51.174;4.438;2023-02-04T06:14:31;76.20;;;29.57;;
26080;SDS011;13991;51.174;4.438;2023-02-04T06:16:57;84.47;;;29.63;;
26080;SDS011;13991;51.174;4.438;2023-02-04T06:19:23;95.97;;;31.73;;
26080;SDS011;13991;51.174;4.438;2023-02-04T06:21:49;91.20;;;33.00;;
26080;SDS011;13991;51.174;4.438;2023-02-04T06:24:15;89.43;;;32.37;;
26080;SDS011;13991;51.174;4.438;2023-02-04T06:26:41;101.23;;;32.70;;
26080;SDS011;13991;51.174;4.438;2023-02-04T06:29:06;98.33;;;32.03;;
26080;SDS011;13991;51.174;4.438;2023-02-04T06:31:32;96.57;;;32.00;;
26080;SDS011;13991;51.174;4.438;2023-02-04T06:33:58;94.20;;;32.20;;
26080;SDS011;13991;51.174;4.438;2023-02-04T06:36:24;83.63;;;29.53;;
26080;SDS011;13991;51.174;4.438;2023-02-04T06:38:49;84.83;;;29.10;;
26080;SDS011;13991;51.174;4.438;2023-02-04T06:41:15;85.90;;;28.43;;
26080;SDS011;13991;51.174;4.438;2023-02-04T06:43:40;88.63;;;28.80;;
26080;SDS011;13991;51.174;4.438;2023-02-04T06:46:06;59.60;;;24.57;;
26080;SDS011;13991;51.174;4.438;2023-02-04T06:48:32;69.87;;;25.10;;
26080;SDS011;13991;51.174;4.438;2023-02-04T06:50:57;72.53;;;27.47;;
26080;SDS011;13991;51.174;4.438;2023-02-04T06:53:23;67.00;;;25.17;;
26080;SDS011;13991;51.174;4.438;2023-02-04T06:55:49;69.53;;;25.87;;
26080;SDS011;13991;51.174;4.438;2023-02-04T06:58:16;63.50;;;25.60;;
26080;SDS011;13991;51.174;4.438;2023-02-04T07:00:42;70.63;;;25.87;;
26080;SDS011;13991;51.174;4.438;2023-02-04T07:03:08;63.37;;;25.37;;
26080;SDS011;13991;51.174;4.438;2023-02-04T07:05:33;72.83;;;26.00;;
26080;SDS011;13991;51.174;4.438;2023-02-04T07:07:59;67.73;;;25.07;;
26080;SDS011;13991;51.174;4.438;2023-02-04T07:10:25;67.23;;;23.80;;
26080;SDS011;13991;51.174;4.438;2023-02-04T07:12:51;66.20;;;25.63;;
26080;SDS011;13991;51.174;4.438;2023-02-04T07:15:17;62.93;;;24.87;;
26080;SDS011;13991;51.174;4.438;2023-02-04T07:17:42;66.87;;;25.67;;
26080;SDS011;13991;51.174;4.438;2023-02-04T07:20:09;68.53;;;24.20;;
26080;SDS011;13991;51.174;4.438;2023-02-04T07:22:35;72.13;;;25.77;;
26080;SDS011;13991;51.174;4.438;2023-02-04T07:25:01;67.17;;;25.63;;
26080;SDS011;13991;51.174;4.438;2023-02-04T07:27:26;69.77;;;26.73;;
26080;SDS011;13991;51.174;4.438;2023-02-04T07:29:52;68.63;;;26.20;;
26080;SDS011;13991;51.174;4.438;2023-02-04T07:32:18;68.47;;;26.13;;
26080;SDS011;13991;51.174;4.438;2023-02-04T07:34:43;81.43;;;25.43;;
26080;SDS011;13991;51.174;4.438;2023-02-04T07:37:09;80.17;;;25.93;;
26080;SDS011;13991;51.174;4.438;2023-02-04T07:39:35;71.27;;;25.53;;
26080;SDS011;13991;51.174;4.438;2023-02-04T07:42:01;77.93;;;26.73;;
26080;SDS011;13991;51.174;4.438;2023-02-04T07:44:26;81.27;;;28.37;;
26080;SDS011;13991;51.174;4.438;2023-02-04T07:46:52;79.13;;;30.07;;
26080;SDS011;13991;51.174;4.438;2023-02-04T07:49:18;83.47;;;30.60;;
26080;SDS011;13991;51.174;4.438;2023-02-04T07:51:43;89.40;;;30.83;;
26080;SDS011;13991;51.174;4.438;2023-02-04T07:54:09;93.77;;;33.00;;
26080;SDS011;13991;51.174;4.438;2023-02-04T07:56:35;89.40;;;32.33;;
26080;SDS011;13991;51.174;4.438;2023-02-04T07:59:00;80.50;;;30.43;;
26080;SDS011;13991;51.174;4.438;2023-02-04T08:01:26;93.27;;;34.10;;
26080;SDS011;13991;51.174;4.438;2023-02-04T08:03:52;92.80;;;34.07;;
26080;SDS011;13991;51.174;4.438;2023-02-04T08:06:17;101.20;;;36.47;;
26080;SDS011;13991;51.174;4.438;2023-02-04T08:08:43;105.83;;;36.83;;
26080;SDS011;13991;51.174;4.438;2023-02-04T08:11:09;100.13;;;34.93;;
26080;SDS011;13991;51.174;4.438;2023-02-04T08:13:34;98.53;;;36.30;;
26080;SDS011;13991;51.174;4.438;2023-02-04T08:16:00;99.33;;;34.77;;
26080;SDS011;13991;51.174;4.438;2023-02-04T08:18:25;100.93;;;35.93;;
26080;SDS011;13991;51.174;4.438;2023-02-04T08:20:51;99.30;;;35.07;;
26080;SDS011;13991;51.174;4.438;2023-02-04T08:23:17;106.70;;;35.27;;
26080;SDS011;13991;51.174;4.438;2023-02-04T08:25:43;107.00;;;33.77;;
26080;SDS011;13991;51.174;4.438;2023-02-04T08:28:09;96.97;;;33.40;;
26080;SDS011;13991;51.174;4.438;2023-02-04T08:30:35;90.80;;;32.73;;
26080;SDS011;13991;51.174;4.438;2023-02-04T08:33:01;87.07;;;31.60;;
26080;SDS011;13991;51.174;4.438;2023-02-04T08:35:26;83.20;;;31.23;;
26080;SDS011;13991;51.174;4.438;2023-02-04T08:37:52;55.60;;;23.10;;
26080;SDS011;13991;51.174;4.438;2023-02-04T08:40:18;68.60;;;25.13;;
26080;SDS011;13991;51.174;4.438;2023-02-04T08:42:43;59.27;;;23.63;;
26080;SDS011;13991;51.174;4.438;2023-02-04T08:45:09;61.47;;;23.13;;
26080;SDS011;13991;51.174;4.438;2023-02-04T08:47:35;58.97;;;23.67;;
26080;SDS011;13991;51.174;4.438;2023-02-04T08:50:00;59.43;;;22.63;;
26080;SDS011;13991;51.174;4.438;2023-02-04T08:52:26;66.33;;;23.53;;
26080;SDS011;13991;51.174;4.438;2023-02-04T08:54:52;73.50;;;24.93;;
26080;SDS011;13991;51.174;4.438;2023-02-04T08:57:17;73.43;;;27.63;;
26080;SDS011;13991;51.174;4.438;2023-02-04T08:59:43;67.70;;;27.50;;
26080;SDS011;13991;51.174;4.438;2023-02-04T09:02:09;80.23;;;26.67;;
26080;SDS011;13991;51.174;4.438;2023-02-04T09:04:35;72.90;;;27.13;;
26080;SDS011;13991;51.174;4.438;2023-02-04T09:07:01;73.47;;;27.10;;
26080;SDS011;13991;51.174;4.438;2023-02-04T09:09:27;87.97;;;34.10;;
26080;SDS011;13991;51.174;4.438;2023-02-04T09:11:53;75.93;;;27.10;;
26080;SDS011;13991;51.174;4.438;2023-02-04T09:14:18;69.30;;;26.03;;
26080;SDS011;13991;51.174;4.438;2023-02-04T09:16:44;66.20;;;23.53;;
26080;SDS011;13991;51.174;4.438;2023-02-04T09:19:10;58.00;;;23.47;;
26080;SDS011;13991;51.174;4.438;2023-02-04T09:21:36;64.47;;;23.23;;
26080;SDS011;13991;51.174;4.438;2023-02-04T09:24:02;61.00;;;22.90;;
26080;SDS011;13991;51.174;4.438;2023-02-04T09:26:28;57.50;;;23.07;;
26080;SDS011;13991;51.174;4.438;2023-02-04T09:28:54;68.60;;;23.83;;
26080;SDS011;13991;51.174;4.438;2023-02-04T09:31:19;72.30;;;25.00;;
26080;SDS011;13991;51.174;4.438;2023-02-04T09:33:45;67.80;;;24.37;;
26080;SDS011;13991;51.174;4.438;2023-02-04T09:36:11;72.20;;;26.93;;
26080;SDS011;13991;51.174;4.438;2023-02-04T09:38:37;77.03;;;27.07;;
26080;SDS011;13991;51.174;4.438;2023-02-04T09:41:04;85.13;;;28.27;;
26080;SDS011;13991;51.174;4.438;2023-02-04T09:43:33;79.73;;;26.60;;
26080;SDS011;13991;51.174;4.438;2023-02-04T09:46:02;63.73;;;26.13;;
26080;SDS011;13991;51.174;4.438;2023-02-04T09:48:28;71.20;;;25.47;;
26080;SDS011;13991;51.174;4.438;2023-02-04T09:51:00;69.17;;;27.47;;
26080;SDS011;13991;51.174;4.438;2023-02-04T09:53:31;66.13;;;24.03;;
26080;SDS011;13991;51.174;4.438;2023-02-04T09:55:59;69.60;;;25.53;;
26080;SDS011;13991;51.174;4.438;2023-02-04T09:58:25;63.87;;;24.60;;
26080;SDS011;13991;51.174;4.438;2023-02-04T10:00:57;80.90;;;24.53;;
26080;SDS011;13991;51.174;4.438;2023-02-04T10:03:25;65.83;;;24.53;;
26080;SDS011;13991;51.174;4.438;2023-02-04T10:05:51;70.50;;;24.30;;
26080;SDS011;13991;51.174;4.438;2023-02-04T10:08:23;66.87;;;25.17;;
26080;SDS011;13991;51.174;4.438;2023-02-04T10:10:53;67.93;;;23.83;;
26080;SDS011;13991;51.174;4.438;2023-02-04T10:13:20;69.37;;;25.00;;
26080;SDS011;13991;51.174;4.438;2023-02-04T10:15:57;63.43;;;21.97;;
26080;SDS011;13991;51.174;4.438;2023-02-04T10:18:26;58.10;;;21.97;;
26080;SDS011;13991;51.174;4.438;2023-02-04T10:23:51;50.60;;;21.23;;
26080;SDS011;13991;51.174;4.438;2023-02-04T10:26:20;62.43;;;23.20;;
26080;SDS011;13991;51.174;4.438;2023-02-04T10:28:46;56.83;;;21.83;;
26080;SDS011;13991;51.174;4.438;2023-02-04T10:31:30;56.70;;;20.60;;
26080;SDS011;13991;51.174;4.438;2023-02-04T10:34:11;46.70;;;18.50;;
26080;SDS011;13991;51.174;4.438;2023-02-04T10:36:42;49.23;;;18.00;;
26080;SDS011;13991;51.174;4.438;2023-02-04T10:41:43;44.80;;;16.03;;
26080;SDS011;13991;51.174;4.438;2023-02-04T10:44:11;30.60;;;14.57;;
26080;SDS011;13991;51.174;4.438;2023-02-04T10:46:38;38.67;;;15.73;;
26080;SDS011;13991;51.174;4.438;2023-02-04T10:49:04;39.87;;;16.67;;
26080;SDS011;13991;51.174;4.438;2023-02-04T10:51:47;32.00;;;14.10;;
26080;SDS011;13991;51.174;4.438;2023-02-04T10:54:14;36.17;;;15.57;;
26080;SDS011;13991;51.174;4.438;2023-02-04T10:57:17;32.40;;;14.07;;
26080;SDS011;13991;51.174;4.438;2023-02-04T11:00:03;31.70;;;13.80;;
26080;SDS011;13991;51.174;4.438;2023-02-04T11:02:39;32.63;;;14.33;;
26080;SDS011;13991;51.174;4.438;2023-02-04T11:05:13;23.23;;;11.77;;
26080;SDS011;13991;51.174;4.438;2023-02-04T11:07:41;27.47;;;12.43;;
26080;SDS011;13991;51.174;4.438;2023-02-04T11:10:11;32.40;;;14.57;;
26080;SDS011;13991;51.174;4.438;2023-02-04T11:12:43;31.97;;;14.67;;
26080;SDS011;13991;51.174;4.438;2023-02-04T11:18:05;31.63;;;14.07;;
26080;SDS011;13991;51.174;4.438;2023-02-04T11:20:33;29.80;;;14.17;;
26080;SDS011;13991;51.174;4.438;2023-02-04T11:23:28;36.27;;;18.10;;
26080;SDS011;13991;51.174;4.438;2023-02-04T11:34:10;36.83;;;19.23;;
26080;SDS011;13991;51.174;4.438;2023-02-04T11:39:21;31.87;;;15.03;;
26080;SDS011;13991;51.174;4.438;2023-02-04T11:41:50;28.90;;;12.20;;
26080;SDS011;13991;51.174;4.438;2023-02-04T11:44:16;11.37;;;7.20;;
26080;SDS011;13991;51.174;4.438;2023-02-04T11:46:47;12.53;;;7.83;;
26080;SDS011;13991;51.174;4.438;2023-02-04T11:49:16;7.00;;;4.53;;
26080;SDS011;13991;51.174;4.438;2023-02-04T11:51:44;5.43;;;4.00;;
26080;SDS011;13991;51.174;4.438;2023-02-04T11:54:11;8.17;;;4.03;;
26080;SDS011;13991;51.174;4.438;2023-02-04T11:56:40;4.73;;;3.50;;
26080;SDS011;13991;51.174;4.438;2023-02-04T11:59:08;8.20;;;3.77;;
26080;SDS011;13991;51.174;4.438;2023-02-04T12:01:35;5.47;;;3.67;;
26080;SDS011;13991;51.174;4.438;2023-02-04T12:04:03;6.37;;;3.60;;
26080;SDS011;13991;51.174;4.438;2023-02-04T12:06:55;5.20;;;3.73;;
26080;SDS011;13991;51.174;4.438;2023-02-04T12:09:29;3.93;;;2.97;;
26080;SDS011;13991;51.174;4.438;2023-02-04T12:11:57;6.97;;;3.47;;
26080;SDS011;13991;51.174;4.438;2023-02-04T12:14:31;6.53;;;3.17;;
26080;SDS011;13991;51.174;4.438;2023-02-04T12:16:58;4.93;;;2.80;;
26080;SDS011;13991;51.174;4.438;2023-02-04T12:19:25;5.43;;;3.80;;
26080;SDS011;13991;51.174;4.438;2023-02-04T12:21:51;5.60;;;3.00;;
26080;SDS011;13991;51.174;4.438;2023-02-04T12:24:17;6.13;;;4.03;;
26080;SDS011;13991;51.174;4.438;2023-02-04T12:26:43;8.77;;;4.33;;
26080;SDS011;13991;51.174;4.438;2023-02-04T12:29:08;8.73;;;4.63;;
26080;SDS011;13991;51.174;4.438;2023-02-04T12:31:34;9.10;;;4.90;;
26080;SDS011;13991;51.174;4.438;2023-02-04T12:34:00;9.77;;;5.10;;
26080;SDS011;13991;51.174;4.438;2023-02-04T12:36:26;9.57;;;5.63;;
26080;SDS011;13991;51.174;4.438;2023-02-04T12:38:53;11.73;;;5.40;;
26080;SDS011;13991;51.174;4.438;2023-02-04T12:41:20;12.20;;;6.00;;
26080;SDS011;13991;51.174;4.438;2023-02-04T12:43:46;13.90;;;6.63;;
26080;SDS011;13991;51.174;4.438;2023-02-04T12:46:14;16.83;;;7.30;;
26080;SDS011;13991;51.174;4.438;2023-02-04T12:48:40;13.80;;;6.60;;
26080;SDS011;13991;51.174;4.438;2023-02-04T12:51:06;18.67;;;8.97;;
26080;SDS011;13991;51.174;4.438;2023-02-04T12:53:32;17.40;;;8.40;;
26080;SDS011;13991;51.174;4.438;2023-02-04T12:55:58;23.33;;;8.70;;
26080;SDS011;13991;51.174;4.438;2023-02-04T12:58:23;21.43;;;9.67;;
26080;SDS011;13991;51.174;4.438;2023-02-04T13:00:49;22.57;;;8.70;;
26080;SDS011;13991;51.174;4.438;2023-02-04T13:03:15;19.53;;;8.93;;
26080;SDS011;13991;51.174;4.438;2023-02-04T13:05:41;24.57;;;8.03;;
26080;SDS011;13991;51.174;4.438;2023-02-04T13:08:07;18.63;;;9.07;;
26080;SDS011;13991;51.174;4.438;2023-02-04T13:10:32;27.00;;;10.70;;
26080;SDS011;13991;51.174;4.438;2023-02-04T13:12:58;18.57;;;7.77;;
26080;SDS011;13991;51.174;4.438;2023-02-04T13:15:24;18.70;;;9.67;;
26080;SDS011;13991;51.174;4.438;2023-02-04T13:17:50;25.23;;;9.73;;
26080;SDS011;13991;51.174;4.438;2023-02-04T13:20:19;21.47;;;8.77;;
26080;SDS011;13991;51.174;4.438;2023-02-04T13:22:45;21.57;;;9.93;;
26080;SDS011;13991;51.174;4.438;2023-02-04T13:25:10;21.43;;;8.80;;
26080;SDS011;13991;51.174;4.438;2023-02-04T13:27:37;14.43;;;6.87;;
26080;SDS011;13991;51.174;4.438;2023-02-04T13:30:04;22.70;;;7.43;;
26080;SDS011;13991;51.174;4.438;2023-02-04T13:32:30;17.40;;;7.93;;
26080;SDS011;13991;51.174;4.438;2023-02-04T13:34:56;20.23;;;8.10;;
26080;SDS011;13991;51.174;4.438;2023-02-04T13:37:22;19.20;;;6.73;;
26080;SDS011;13991;51.174;4.438;2023-02-04T13:39:48;17.70;;;6.63;;
26080;SDS011;13991;51.174;4.438;2023-02-04T13:42:13;19.90;;;6.53;;
26080;SDS011;13991;51.174;4.438;2023-02-04T13:44:39;15.93;;;6.17;;
26080;SDS011;13991;51.174;4.438;2023-02-04T13:47:05;19.87;;;7.10;;
26080;SDS011;13991;51.174;4.438;2023-02-04T13:49:30;16.57;;;7.40;;
26080;SDS011;13991;51.174;4.438;2023-02-04T13:51:56;18.47;;;7.03;;
26080;SDS011;13991;51.174;4.438;2023-02-04T13:54:22;18.67;;;7.17;;
26080;SDS011;13991;51.174;4.438;2023-02-04T13:56:47;23.90;;;8.30;;
26080;SDS011;13991;51.174;4.438;2023-02-04T13:59:13;19.33;;;8.50;;
26080;SDS011;13991;51.174;4.438;2023-02-04T14:01:39;19.73;;;7.50;;
26080;SDS011;13991;51.174;4.438;2023-02-04T14:04:04;19.60;;;8.13;;
26080;SDS011;13991;51.174;4.438;2023-02-04T14:06:30;20.90;;;7.80;;
26080;SDS011;13991;51.174;4.438;2023-02-04T14:09:02;28.67;;;8.60;;
26080;SDS011;13991;51.174;4.438;2023-02-04T14:11:28;20.43;;;7.90;;
26080;SDS011;13991;51.174;4.438;2023-02-04T14:13:54;18.23;;;7.80;;
26080;SDS011;13991;51.174;4.438;2023-02-04T14:16:20;15.33;;;8.00;;
26080;SDS011;13991;51.174;4.438;2023-02-04T14:18:46;29.17;;;8.27;;
26080;SDS011;13991;51.174;4.438;2023-02-04T14:21:12;22.33;;;8.40;;
26080;SDS011;13991;51.174;4.438;2023-02-04T14:23:37;29.77;;;11.13;;
26080;SDS011;13991;51.174;4.438;2023-02-04T14:26:03;37.10;;;11.10;;
26080;SDS011;13991;51.174;4.438;2023-02-04T14:28:29;26.10;;;9.90;;
26080;SDS011;13991;51.174;4.438;2023-02-04T14:30:54;20.10;;;8.07;;
26080;SDS011;13991;51.174;4.438;2023-02-04T14:33:20;18.80;;;8.00;;
26080;SDS011;13991;51.174;4.438;2023-02-04T14:35:46;16.90;;;6.70;;
26080;SDS011;13991;51.174;4.438;2023-02-04T14:38:12;19.03;;;6.47;;
26080;SDS011;13991;51.174;4.438;2023-02-04T14:40:40;13.10;;;6.57;;
26080;SDS011;13991;51.174;4.438;2023-02-04T14:43:06;23.47;;;6.80;;
26080;SDS011;13991;51.174;4.438;2023-02-04T14:45:32;13.13;;;5.20;;